sensor_id;sensor_type;location;lat;lon;timestamp;pressure;altitude;pressure_sealevel;temperature;humidity
80202;BME280;69521;54.454;9.928;2023-04-24T00:00:32;99930.53;;;10.36;77.37
80202;BME280;69521;54.454;9.928;2023-04-24T00:02:57;99946.50;;;10.38;77.26
80202;BME280;69521;54.454;9.928;2023-04-24T00:05:23;99919.16;;;10.42;76.99
80202;BME280;69521;54.454;9.928;2023-04-24T00:07:49;99925.00;;;10.38;77.92
80202;BME280;69521;54.454;9.928;2023-04-24T00:10:17;99925.13;;;10.28;78.39
80202;BME280;69521;54.454;9.928;2023-04-24T00:12:43;99921.44;;;10.29;79.05
80202;BME280;69521;54.454;9.928;2023-04-24T00:15:08;99921.59;;;10.28;78.35
80202;BME280;69521;54.454;9.928;2023-04-24T00:17:34;99897.72;;;10.25;78.47
80202;BME280;69521;54.454;9.928;2023-04-24T00:19:59;99892.03;;;10.28;78.35
80202;BME280;69521;54.454;9.928;2023-04-24T00:22:26;99886.84;;;10.34;77.88
80202;BME280;69521;54.454;9.928;2023-04-24T00:24:51;99894.75;;;10.36;78.74
80202;BME280;69521;54.454;9.928;2023-04-24T00:27:17;99901.41;;;10.24;80.46
80202;BME280;69521;54.454;9.928;2023-04-24T00:29:42;99908.88;;;10.12;80.22
80202;BME280;69521;54.454;9.928;2023-04-24T00:32:07;99899.97;;;10.11;81.16
80202;BME280;69521;54.454;9.928;2023-04-24T00:34:33;99902.84;;;10.18;80.52
80202;BME280;69521;54.454;9.928;2023-04-24T00:36:58;99890.06;;;10.12;80.44
80202;BME280;69521;54.454;9.928;2023-04-24T00:39:23;99893.44;;;10.14;81.39
80202;BME280;69521;54.454;9.928;2023-04-24T00:41:49;99889.03;;;10.05;81.98
80202;BME280;69521;54.454;9.928;2023-04-24T00:44:16;99892.72;;;10.04;81.41
80202;BME280;69521;54.454;9.928;2023-04-24T00:46:42;99890.22;;;10.10;81.84
80202;BME280;69521;54.454;9.928;2023-04-24T00:49:07;99881.84;;;10.13;81.32
80202;BME280;69521;54.454;9.928;2023-04-24T00:51:32;99877.00;;;10.17;80.03
80202;BME280;69521;54.454;9.928;2023-04-24T00:53:59;99875.13;;;10.17;81.92
80202;BME280;69521;54.454;9.928;2023-04-24T00:56:25;99864.72;;;10.14;81.72
80202;BME280;69521;54.454;9.928;2023-04-24T00:58:51;99867.41;;;10.14;82.17
80202;BME280;69521;54.454;9.928;2023-04-24T01:01:17;99858.63;;;10.04;82.68
80202;BME280;69521;54.454;9.928;2023-04-24T01:03:43;99852.56;;;10.02;83.45
80202;BME280;69521;54.454;9.928;2023-04-24T01:06:09;99853.38;;;9.95;83.42
80202;BME280;69521;54.454;9.928;2023-04-24T01:08:35;99850.53;;;9.96;83.71
80202;BME280;69521;54.454;9.928;2023-04-24T01:11:03;99837.25;;;9.95;84.42
80202;BME280;69521;54.454;9.928;2023-04-24T01:13:28;99844.94;;;9.89;84.06
80202;BME280;69521;54.454;9.928;2023-04-24T01:15:54;99836.22;;;9.87;84.32
80202;BME280;69521;54.454;9.928;2023-04-24T01:18:20;99822.63;;;9.89;83.81
80202;BME280;69521;54.454;9.928;2023-04-24T01:20:46;99829.84;;;9.88;84.80
80202;BME280;69521;54.454;9.928;2023-04-24T01:23:12;99825.31;;;9.89;84.37
80202;BME280;69521;54.454;9.928;2023-04-24T01:25:38;99825.09;;;9.82;85.35
80202;BME280;69521;54.454;9.928;2023-04-24T01:28:04;99824.94;;;9.84;84.25
80202;BME280;69521;54.454;9.928;2023-04-24T01:30:31;99817.25;;;9.89;83.81
80202;BME280;69521;54.454;9.928;2023-04-24T01:32:58;99802.81;;;9.90;83.63
80202;BME280;69521;54.454;9.928;2023-04-24T01:35:24;99792.91;;;9.90;84.29
80202;BME280;69521;54.454;9.928;2023-04-24T01:37:50;99787.00;;;9.87;85.25
80202;BME280;69521;54.454;9.928;2023-04-24T01:40:15;99775.44;;;9.86;85.04
80202;BME280;69521;54.454;9.928;2023-04-24T01:42:41;99793.19;;;9.79;85.67
80202;BME280;69521;54.454;9.928;2023-04-24T01:45:10;99782.09;;;9.74;86.09
80202;BME280;69521;54.454;9.928;2023-04-24T01:47:36;99786.81;;;9.80;85.37
80202;BME280;69521;54.454;9.928;2023-04-24T01:50:02;99791.84;;;9.75;86.12
80202;BME280;69521;54.454;9.928;2023-04-24T01:52:27;99787.13;;;9.77;86.52
80202;BME280;69521;54.454;9.928;2023-04-24T01:54:56;99793.88;;;9.81;86.64
80202;BME280;69521;54.454;9.928;2023-04-24T01:57:22;99789.47;;;9.72;85.54
80202;BME280;69521;54.454;9.928;2023-04-24T01:59:47;99795.84;;;9.71;87.27
80202;BME280;69521;54.454;9.928;2023-04-24T02:02:12;99789.63;;;9.71;86.24
80202;BME280;69521;54.454;9.928;2023-04-24T02:04:39;99792.47;;;9.69;86.57
80202;BME280;69521;54.454;9.928;2023-04-24T02:07:04;99784.09;;;9.72;86.43
80202;BME280;69521;54.454;9.928;2023-04-24T02:09:30;99772.19;;;9.75;86.74
80202;BME280;69521;54.454;9.928;2023-04-24T02:11:55;99765.97;;;9.74;87.20
80202;BME280;69521;54.454;9.928;2023-04-24T02:14:21;99766.97;;;9.73;87.31
80202;BME280;69521;54.454;9.928;2023-04-24T02:16:46;99756.06;;;9.75;87.04
80202;BME280;69521;54.454;9.928;2023-04-24T02:19:12;99750.53;;;9.76;87.29
80202;BME280;69521;54.454;9.928;2023-04-24T02:21:37;99757.25;;;9.72;87.94
80202;BME280;69521;54.454;9.928;2023-04-24T02:24:03;99755.91;;;9.76;87.38
80202;BME280;69521;54.454;9.928;2023-04-24T02:26:28;99753.88;;;9.70;87.68
80202;BME280;69521;54.454;9.928;2023-04-24T02:28:53;99754.22;;;9.75;87.52
80202;BME280;69521;54.454;9.928;2023-04-24T02:31:19;99754.56;;;9.72;87.58
80202;BME280;69521;54.454;9.928;2023-04-24T02:33:44;99749.53;;;9.77;86.97
80202;BME280;69521;54.454;9.928;2023-04-24T02:36:09;99755.22;;;9.74;87.03
80202;BME280;69521;54.454;9.928;2023-04-24T02:38:35;99749.34;;;9.71;86.86
80202;BME280;69521;54.454;9.928;2023-04-24T02:41:00;99745.97;;;9.69;87.10
80202;BME280;69521;54.454;9.928;2023-04-24T02:43:27;99745.50;;;9.73;87.54
80202;BME280;69521;54.454;9.928;2023-04-24T02:45:52;99743.81;;;9.72;87.06
80202;BME280;69521;54.454;9.928;2023-04-24T02:48:18;99740.78;;;9.67;87.91
80202;BME280;69521;54.454;9.928;2023-04-24T02:50:43;99725.50;;;9.68;87.32
80202;BME280;69521;54.454;9.928;2023-04-24T02:53:09;99728.69;;;9.71;87.12
80202;BME280;69521;54.454;9.928;2023-04-24T02:55:34;99720.97;;;9.68;86.72
80202;BME280;69521;54.454;9.928;2023-04-24T02:58:00;99731.34;;;9.63;87.16
80202;BME280;69521;54.454;9.928;2023-04-24T03:00:26;99731.03;;;9.66;86.98
80202;BME280;69521;54.454;9.928;2023-04-24T03:02:51;99735.25;;;9.69;86.52
80202;BME280;69521;54.454;9.928;2023-04-24T03:05:16;99730.50;;;9.63;87.29
80202;BME280;69521;54.454;9.928;2023-04-24T03:07:41;99732.00;;;9.57;87.49
80202;BME280;69521;54.454;9.928;2023-04-24T03:10:07;99730.31;;;9.56;86.97
80202;BME280;69521;54.454;9.928;2023-04-24T03:12:33;99727.63;;;9.56;86.74
80202;BME280;69521;54.454;9.928;2023-04-24T03:14:58;99729.56;;;9.46;87.57
80202;BME280;69521;54.454;9.928;2023-04-24T03:17:23;99731.78;;;9.50;87.08
80202;BME280;69521;54.454;9.928;2023-04-24T03:19:49;99727.91;;;9.53;87.21
80202;BME280;69521;54.454;9.928;2023-04-24T03:22:15;99727.63;;;9.56;86.91
80202;BME280;69521;54.454;9.928;2023-04-24T03:24:40;99728.56;;;9.47;87.21
80202;BME280;69521;54.454;9.928;2023-04-24T03:27:05;99721.03;;;9.50;86.49
80202;BME280;69521;54.454;9.928;2023-04-24T03:29:31;99716.50;;;9.51;86.48
80202;BME280;69521;54.454;9.928;2023-04-24T03:31:56;99718.50;;;9.49;87.23
80202;BME280;69521;54.454;9.928;2023-04-24T03:34:21;99719.56;;;9.56;87.46
80202;BME280;69521;54.454;9.928;2023-04-24T03:36:46;99717.91;;;9.55;86.98
80202;BME280;69521;54.454;9.928;2023-04-24T03:39:15;99720.88;;;9.52;87.34
80202;BME280;69521;54.454;9.928;2023-04-24T03:41:40;99716.06;;;9.55;87.44
80202;BME280;69521;54.454;9.928;2023-04-24T03:44:06;99717.19;;;9.53;87.58
80202;BME280;69521;54.454;9.928;2023-04-24T03:46:31;99715.88;;;9.57;87.07
80202;BME280;69521;54.454;9.928;2023-04-24T03:48:56;99718.25;;;9.60;87.05
80202;BME280;69521;54.454;9.928;2023-04-24T03:51:21;99719.25;;;9.59;87.01
80202;BME280;69521;54.454;9.928;2023-04-24T03:53:48;99712.66;;;9.53;87.14
80202;BME280;69521;54.454;9.928;2023-04-24T03:56:13;99714.97;;;9.48;86.91
80202;BME280;69521;54.454;9.928;2023-04-24T03:58:38;99717.19;;;9.53;86.11
80202;BME280;69521;54.454;9.928;2023-04-24T04:01:04;99715.47;;;9.44;85.79
80202;BME280;69521;54.454;9.928;2023-04-24T04:03:30;99714.47;;;9.45;85.67
80202;BME280;69521;54.454;9.928;2023-04-24T04:05:56;99717.78;;;9.39;85.75
80202;BME280;69521;54.454;9.928;2023-04-24T04:08:23;99726.16;;;9.36;86.44
80202;BME280;69521;54.454;9.928;2023-04-24T04:10:48;99723.31;;;9.37;85.80
80202;BME280;69521;54.454;9.928;2023-04-24T04:13:14;99728.00;;;9.35;85.65
80202;BME280;69521;54.454;9.928;2023-04-24T04:15:39;99726.84;;;9.38;85.81
80202;BME280;69521;54.454;9.928;2023-04-24T04:18:05;99727.16;;;9.35;85.16
80202;BME280;69521;54.454;9.928;2023-04-24T04:20:30;99721.44;;;9.30;85.09
80202;BME280;69521;54.454;9.928;2023-04-24T04:22:56;99723.47;;;9.36;84.04
80202;BME280;69521;54.454;9.928;2023-04-24T04:25:21;99719.25;;;9.33;84.42
80202;BME280;69521;54.454;9.928;2023-04-24T04:27:46;99727.53;;;9.40;84.23
80202;BME280;69521;54.454;9.928;2023-04-24T04:30:13;99718.09;;;9.36;83.92
80202;BME280;69521;54.454;9.928;2023-04-24T04:32:40;99713.94;;;9.41;83.69
80202;BME280;69521;54.454;9.928;2023-04-24T04:35:05;99722.34;;;9.46;83.55
80202;BME280;69521;54.454;9.928;2023-04-24T04:37:31;99720.50;;;9.47;84.96
80202;BME280;69521;54.454;9.928;2023-04-24T04:39:58;99704.41;;;9.47;83.79
80202;BME280;69521;54.454;9.928;2023-04-24T04:42:24;99714.31;;;9.46;84.27
80202;BME280;69521;54.454;9.928;2023-04-24T04:44:50;99719.84;;;9.45;83.65
80202;BME280;69521;54.454;9.928;2023-04-24T04:47:16;99704.47;;;9.55;81.72
80202;BME280;69521;54.454;9.928;2023-04-24T04:49:42;99713.53;;;9.54;83.35
80202;BME280;69521;54.454;9.928;2023-04-24T04:52:08;99727.06;;;9.52;82.55
80202;BME280;69521;54.454;9.928;2023-04-24T04:54:33;99726.31;;;9.60;81.72
80202;BME280;69521;54.454;9.928;2023-04-24T04:56:58;99716.41;;;9.61;82.54
80202;BME280;69521;54.454;9.928;2023-04-24T04:59:25;99715.59;;;9.68;80.54
80202;BME280;69521;54.454;9.928;2023-04-24T05:01:51;99709.88;;;9.63;81.96
80202;BME280;69521;54.454;9.928;2023-04-24T05:04:16;99713.25;;;9.65;81.68
80202;BME280;69521;54.454;9.928;2023-04-24T05:06:41;99709.91;;;9.71;80.79
80202;BME280;69521;54.454;9.928;2023-04-24T05:09:07;99711.41;;;9.66;81.71
80202;BME280;69521;54.454;9.928;2023-04-24T05:11:32;99716.56;;;9.59;82.37
80202;BME280;69521;54.454;9.928;2023-04-24T05:13:57;99717.56;;;9.58;81.41
80202;BME280;69521;54.454;9.928;2023-04-24T05:16:23;99713.53;;;9.54;81.07
80202;BME280;69521;54.454;9.928;2023-04-24T05:18:48;99710.53;;;9.57;81.29
80202;BME280;69521;54.454;9.928;2023-04-24T05:21:13;99727.16;;;9.61;80.61
80202;BME280;69521;54.454;9.928;2023-04-24T05:23:39;99729.00;;;9.60;79.34
80202;BME280;69521;54.454;9.928;2023-04-24T05:26:04;99736.88;;;9.62;78.89
80202;BME280;69521;54.454;9.928;2023-04-24T05:28:30;99725.31;;;9.61;79.77
80202;BME280;69521;54.454;9.928;2023-04-24T05:30:55;99724.63;;;9.59;80.38
80202;BME280;69521;54.454;9.928;2023-04-24T05:33:21;99739.72;;;9.60;79.16
80202;BME280;69521;54.454;9.928;2023-04-24T05:35:47;99727.16;;;9.61;79.04
80202;BME280;69521;54.454;9.928;2023-04-24T05:38:13;99724.94;;;9.56;79.30
80202;BME280;69521;54.454;9.928;2023-04-24T05:40:39;99735.03;;;9.62;77.30
80202;BME280;69521;54.454;9.928;2023-04-24T05:43:04;99738.22;;;9.57;78.98
80202;BME280;69521;54.454;9.928;2023-04-24T05:45:29;99751.78;;;9.56;77.96
80202;BME280;69521;54.454;9.928;2023-04-24T05:47:55;99731.69;;;9.60;79.34
80202;BME280;69521;54.454;9.928;2023-04-24T05:50:20;99731.22;;;9.73;77.20
80202;BME280;69521;54.454;9.928;2023-04-24T05:52:46;99733.06;;;9.72;77.70
80202;BME280;69521;54.454;9.928;2023-04-24T05:55:11;99730.38;;;9.72;78.68
80202;BME280;69521;54.454;9.928;2023-04-24T05:57:36;99732.06;;;9.73;78.12
80202;BME280;69521;54.454;9.928;2023-04-24T06:00:03;99724.34;;;9.70;76.98
80202;BME280;69521;54.454;9.928;2023-04-24T06:02:29;99732.41;;;9.70;76.67
80202;BME280;69521;54.454;9.928;2023-04-24T06:04:58;99734.72;;;9.65;77.57
80202;BME280;69521;54.454;9.928;2023-04-24T06:07:24;99730.38;;;9.72;77.87
80202;BME280;69521;54.454;9.928;2023-04-24T06:09:51;99730.38;;;9.72;76.39
80202;BME280;69521;54.454;9.928;2023-04-24T06:12:17;99731.22;;;9.73;77.77
80202;BME280;69521;54.454;9.928;2023-04-24T06:14:43;99726.88;;;9.72;76.79
80202;BME280;69521;54.454;9.928;2023-04-24T06:17:08;99721.66;;;9.70;77.68
80202;BME280;69521;54.454;9.928;2023-04-24T06:19:33;99725.84;;;9.73;78.47
80202;BME280;69521;54.454;9.928;2023-04-24T06:21:59;99728.38;;;9.74;77.95
80202;BME280;69521;54.454;9.928;2023-04-24T06:24:28;99726.38;;;9.76;78.15
80202;BME280;69521;54.454;9.928;2023-04-24T06:26:53;99726.88;;;9.72;77.50
80202;BME280;69521;54.454;9.928;2023-04-24T06:29:19;99733.75;;;9.74;78.67
80202;BME280;69521;54.454;9.928;2023-04-24T06:31:44;99725.22;;;9.79;77.08
80202;BME280;69521;54.454;9.928;2023-04-24T06:34:10;99732.25;;;9.80;76.81
80202;BME280;69521;54.454;9.928;2023-04-24T06:36:35;99720.88;;;9.86;76.45
80202;BME280;69521;54.454;9.928;2023-04-24T06:39:01;99718.88;;;9.88;76.47
80202;BME280;69521;54.454;9.928;2023-04-24T06:41:26;99722.75;;;9.94;78.14
80202;BME280;69521;54.454;9.928;2023-04-24T06:43:52;99726.44;;;9.93;77.27
80202;BME280;69521;54.454;9.928;2023-04-24T06:46:17;99722.75;;;9.94;75.98
80202;BME280;69521;54.454;9.928;2023-04-24T06:48:43;99726.59;;;9.91;77.04
80202;BME280;69521;54.454;9.928;2023-04-24T06:51:08;99722.06;;;9.92;77.12
80202;BME280;69521;54.454;9.928;2023-04-24T06:53:34;99716.00;;;9.89;76.91
80202;BME280;69521;54.454;9.928;2023-04-24T06:56:00;99716.34;;;9.86;76.14
80202;BME280;69521;54.454;9.928;2023-04-24T06:58:25;99727.94;;;9.87;76.92
80202;BME280;69521;54.454;9.928;2023-04-24T07:00:51;99722.56;;;9.87;77.42
80202;BME280;69521;54.454;9.928;2023-04-24T07:03:16;99710.31;;;9.93;75.49
80202;BME280;69521;54.454;9.928;2023-04-24T07:05:41;99727.59;;;9.90;76.37
80202;BME280;69521;54.454;9.928;2023-04-24T07:08:07;99727.75;;;9.88;76.65
80202;BME280;69521;54.454;9.928;2023-04-24T07:10:33;99720.38;;;9.90;76.47
80202;BME280;69521;54.454;9.928;2023-04-24T07:13:00;99724.41;;;9.95;77.92
80202;BME280;69521;54.454;9.928;2023-04-24T07:15:26;99718.72;;;9.98;77.05
80202;BME280;69521;54.454;9.928;2023-04-24T07:17:52;99715.53;;;10.02;76.97
80202;BME280;69521;54.454;9.928;2023-04-24T07:20:17;99719.75;;;10.05;77.63
80202;BME280;69521;54.454;9.928;2023-04-24T07:22:43;99724.13;;;10.06;77.32
80202;BME280;69521;54.454;9.928;2023-04-24T07:25:08;99714.06;;;10.08;76.60
80202;BME280;69521;54.454;9.928;2023-04-24T07:27:34;99719.25;;;10.09;74.90
80202;BME280;69521;54.454;9.928;2023-04-24T07:30:01;99723.13;;;10.07;74.98
80202;BME280;69521;54.454;9.928;2023-04-24T07:32:26;99724.63;;;10.01;76.42
80202;BME280;69521;54.454;9.928;2023-04-24T07:34:52;99727.47;;;10.00;75.46
80202;BME280;69521;54.454;9.928;2023-04-24T07:37:17;99719.06;;;10.03;74.71
80202;BME280;69521;54.454;9.928;2023-04-24T07:39:43;99735.34;;;10.01;75.20
80202;BME280;69521;54.454;9.928;2023-04-24T07:42:08;99736.91;;;10.12;74.24
80202;BME280;69521;54.454;9.928;2023-04-24T07:44:33;99731.41;;;10.21;74.91
80202;BME280;69521;54.454;9.928;2023-04-24T07:46:59;99740.19;;;10.40;76.83
80202;BME280;69521;54.454;9.928;2023-04-24T07:49:25;99735.69;;;10.48;74.19
80202;BME280;69521;54.454;9.928;2023-04-24T07:51:50;99741.75;;;10.59;73.38
80202;BME280;69521;54.454;9.928;2023-04-24T07:54:15;99742.41;;;10.61;72.71
80202;BME280;69521;54.454;9.928;2023-04-24T07:56:41;99738.38;;;10.73;73.90
80202;BME280;69521;54.454;9.928;2023-04-24T07:59:08;99737.72;;;10.87;73.03
80202;BME280;69521;54.454;9.928;2023-04-24T08:01:35;99734.19;;;10.78;73.10
80202;BME280;69521;54.454;9.928;2023-04-24T08:04:00;99740.72;;;10.60;72.35
80202;BME280;69521;54.454;9.928;2023-04-24T08:06:25;99750.09;;;10.39;73.55
80202;BME280;69521;54.454;9.928;2023-04-24T08:08:55;99744.84;;;10.21;72.72
80202;BME280;69521;54.454;9.928;2023-04-24T08:11:20;99745.31;;;10.17;74.12
80202;BME280;69521;54.454;9.928;2023-04-24T08:13:45;99758.22;;;10.13;73.03
80202;BME280;69521;54.454;9.928;2023-04-24T08:16:11;99765.97;;;10.16;72.60
80202;BME280;69521;54.454;9.928;2023-04-24T08:18:39;99760.13;;;10.21;73.72
80202;BME280;69521;54.454;9.928;2023-04-24T08:21:04;99763.97;;;10.18;73.69
80202;BME280;69521;54.454;9.928;2023-04-24T08:23:30;99774.19;;;10.15;73.44
80202;BME280;69521;54.454;9.928;2023-04-24T08:25:55;99773.84;;;10.10;75.62
80202;BME280;69521;54.454;9.928;2023-04-24T08:28:21;99777.81;;;9.98;76.29
80202;BME280;69521;54.454;9.928;2023-04-24T08:30:47;99778.78;;;9.88;76.01
80202;BME280;69521;54.454;9.928;2023-04-24T08:33:14;99782.44;;;9.79;76.38
80202;BME280;69521;54.454;9.928;2023-04-24T08:35:39;99776.91;;;9.81;77.79
80202;BME280;69521;54.454;9.928;2023-04-24T08:38:05;99779.44;;;9.82;76.37
80202;BME280;69521;54.454;9.928;2023-04-24T08:40:34;99785.84;;;9.89;77.22
80202;BME280;69521;54.454;9.928;2023-04-24T08:42:59;99782.66;;;9.86;77.38
80202;BME280;69521;54.454;9.928;2023-04-24T08:45:26;99787.53;;;9.90;76.79
80202;BME280;69521;54.454;9.928;2023-04-24T08:47:52;99778.34;;;10.01;77.44
80202;BME280;69521;54.454;9.928;2023-04-24T08:50:20;99787.28;;;10.10;77.44
80202;BME280;69521;54.454;9.928;2023-04-24T08:52:45;99793.28;;;10.04;75.80
80202;BME280;69521;54.454;9.928;2023-04-24T08:55:12;99784.72;;;10.00;75.33
80202;BME280;69521;54.454;9.928;2023-04-24T08:57:39;99794.31;;;10.03;75.31
80202;BME280;69521;54.454;9.928;2023-04-24T09:00:06;99782.56;;;10.04;74.99
80202;BME280;69521;54.454;9.928;2023-04-24T09:02:31;99789.59;;;10.05;74.04
80202;BME280;69521;54.454;9.928;2023-04-24T09:04:59;99782.56;;;10.04;74.70
80202;BME280;69521;54.454;9.928;2023-04-24T09:07:27;99802.03;;;10.06;74.94
80202;BME280;69521;54.454;9.928;2023-04-24T09:09:52;99794.13;;;10.04;75.43
80202;BME280;69521;54.454;9.928;2023-04-24T09:12:18;99790.81;;;10.10;74.42
80202;BME280;69521;54.454;9.928;2023-04-24T09:14:44;99794.00;;;10.14;73.87
80202;BME280;69521;54.454;9.928;2023-04-24T09:17:10;99789.31;;;10.16;75.32
80202;BME280;69521;54.454;9.928;2023-04-24T09:19:36;99801.06;;;10.15;74.53
80202;BME280;69521;54.454;9.928;2023-04-24T09:22:05;99797.19;;;10.09;74.85
80202;BME280;69521;54.454;9.928;2023-04-24T09:24:31;99807.94;;;10.09;75.18
80202;BME280;69521;54.454;9.928;2023-04-24T09:26:58;99805.25;;;10.09;76.45
80202;BME280;69521;54.454;9.928;2023-04-24T09:29:24;99810.81;;;10.16;75.05
80202;BME280;69521;54.454;9.928;2023-04-24T09:31:50;99816.19;;;10.16;75.07
80202;BME280;69521;54.454;9.928;2023-04-24T09:34:24;99819.25;;;10.21;74.92
80202;BME280;69521;54.454;9.928;2023-04-24T09:36:50;99809.50;;;10.20;75.15
80202;BME280;69521;54.454;9.928;2023-04-24T09:39:17;99818.09;;;10.24;76.07
80202;BME280;69521;54.454;9.928;2023-04-24T09:41:50;99816.56;;;10.21;75.41
80202;BME280;69521;54.454;9.928;2023-04-24T09:44:20;99812.56;;;10.25;75.58
80202;BME280;69521;54.454;9.928;2023-04-24T09:46:51;99809.50;;;10.20;75.41
80202;BME280;69521;54.454;9.928;2023-04-24T09:49:22;99818.09;;;10.24;74.53
80202;BME280;69521;54.454;9.928;2023-04-24T09:51:49;99818.09;;;10.24;74.15
80202;BME280;69521;54.454;9.928;2023-04-24T09:54:19;99825.16;;;10.25;75.08
80202;BME280;69521;54.454;9.928;2023-04-24T09:56:49;99826.84;;;10.26;75.72
80202;BME280;69521;54.454;9.928;2023-04-24T09:59:18;99822.97;;;10.28;74.49
80202;BME280;69521;54.454;9.928;2023-04-24T10:01:44;99829.22;;;10.37;75.26
80202;BME280;69521;54.454;9.928;2023-04-24T10:06:46;99833.31;;;10.49;76.91
80202;BME280;69521;54.454;9.928;2023-04-24T10:09:12;99830.81;;;10.56;77.87
80202;BME280;69521;54.454;9.928;2023-04-24T10:11:43;99833.72;;;10.28;77.93
80202;BME280;69521;54.454;9.928;2023-04-24T10:14:24;99842.19;;;10.07;81.17
80202;BME280;69521;54.454;9.928;2023-04-24T10:16:53;99841.16;;;9.74;81.89
80202;BME280;69521;54.454;9.928;2023-04-24T10:19:18;99845.81;;;9.64;83.75
80202;BME280;69521;54.454;9.928;2023-04-24T10:21:45;99843.75;;;9.58;83.97
80202;BME280;69521;54.454;9.928;2023-04-24T10:24:18;99838.00;;;9.53;85.64
80202;BME280;69521;54.454;9.928;2023-04-24T10:26:46;99845.34;;;9.51;85.20
80202;BME280;69521;54.454;9.928;2023-04-24T10:29:15;99842.38;;;9.54;84.57
80202;BME280;69521;54.454;9.928;2023-04-24T10:31:40;99851.13;;;9.56;84.04
80202;BME280;69521;54.454;9.928;2023-04-24T10:34:06;99857.19;;;9.40;85.91
80202;BME280;69521;54.454;9.928;2023-04-24T10:36:39;99846.00;;;9.45;85.69
80202;BME280;69521;54.454;9.928;2023-04-24T10:39:09;99844.84;;;9.47;84.27
80202;BME280;69521;54.454;9.928;2023-04-24T10:41:37;99841.59;;;9.62;85.04
80202;BME280;69521;54.454;9.928;2023-04-24T10:44:13;99840.44;;;9.64;84.71
80202;BME280;69521;54.454;9.928;2023-04-24T10:46:39;99843.81;;;9.66;85.98
80202;BME280;69521;54.454;9.928;2023-04-24T10:49:05;99835.81;;;9.74;84.32
80202;BME280;69521;54.454;9.928;2023-04-24T10:54:28;99832.72;;;9.95;81.71
80202;BME280;69521;54.454;9.928;2023-04-24T10:57:34;99841.31;;;9.99;80.21
80202;BME280;69521;54.454;9.928;2023-04-24T11:00:16;99833.47;;;10.13;80.21
80202;BME280;69521;54.454;9.928;2023-04-24T11:02:46;99836.75;;;10.25;79.42
80202;BME280;69521;54.454;9.928;2023-04-24T11:05:17;99845.34;;;10.37;78.81
80202;BME280;69521;54.454;9.928;2023-04-24T11:10:27;99835.19;;;10.57;75.00
80202;BME280;69521;54.454;9.928;2023-04-24T11:12:53;99842.41;;;10.56;75.63
80202;BME280;69521;54.454;9.928;2023-04-24T11:15:18;99840.53;;;10.48;76.40
80202;BME280;69521;54.454;9.928;2023-04-24T11:17:45;99845.72;;;10.42;75.61
80202;BME280;69521;54.454;9.928;2023-04-24T11:20:11;99849.44;;;10.49;75.41
80202;BME280;69521;54.454;9.928;2023-04-24T11:22:41;99844.75;;;10.51;75.58
80202;BME280;69521;54.454;9.928;2023-04-24T11:25:07;99856.16;;;10.45;76.01
80202;BME280;69521;54.454;9.928;2023-04-24T11:27:41;99857.31;;;10.42;75.78
80202;BME280;69521;54.454;9.928;2023-04-24T11:30:07;99853.50;;;10.53;74.47
80202;BME280;69521;54.454;9.928;2023-04-24T11:34:59;99849.72;;;11.12;75.04
80202;BME280;69521;54.454;9.928;2023-04-24T11:37:36;99837.44;;;11.26;71.90
80202;BME280;69521;54.454;9.928;2023-04-24T11:40:03;99850.72;;;11.52;71.74
80202;BME280;69521;54.454;9.928;2023-04-24T11:42:34;99841.63;;;11.69;74.31
80202;BME280;69521;54.454;9.928;2023-04-24T11:45:00;99845.88;;;11.39;70.69
80202;BME280;69521;54.454;9.928;2023-04-24T11:47:30;99842.31;;;10.98;71.57
80202;BME280;69521;54.454;9.928;2023-04-24T11:49:58;99850.69;;;10.87;73.96
80202;BME280;69521;54.454;9.928;2023-04-24T11:52:23;99847.66;;;10.82;72.48
80202;BME280;69521;54.454;9.928;2023-04-24T11:54:49;99864.66;;;10.82;70.95
80202;BME280;69521;54.454;9.928;2023-04-24T11:57:15;99850.03;;;10.93;70.67
80202;BME280;69521;54.454;9.928;2023-04-24T11:59:41;99862.31;;;11.04;70.87
80202;BME280;69521;54.454;9.928;2023-04-24T12:02:06;99859.31;;;11.23;70.06
80202;BME280;69521;54.454;9.928;2023-04-24T12:04:39;99865.03;;;11.20;67.59
80202;BME280;69521;54.454;9.928;2023-04-24T12:07:05;99851.44;;;11.38;70.33
80202;BME280;69521;54.454;9.928;2023-04-24T12:10:03;99853.59;;;11.26;69.72
80202;BME280;69521;54.454;9.928;2023-04-24T12:12:28;99856.09;;;11.11;69.95
80202;BME280;69521;54.454;9.928;2023-04-24T12:14:57;99851.06;;;11.25;69.75
80202;BME280;69521;54.454;9.928;2023-04-24T12:17:30;99851.72;;;11.27;70.14
80202;BME280;69521;54.454;9.928;2023-04-24T12:20:04;99857.31;;;11.49;68.81
80202;BME280;69521;54.454;9.928;2023-04-24T12:22:43;99860.16;;;11.56;70.21
80202;BME280;69521;54.454;9.928;2023-04-24T12:25:11;99861.16;;;11.63;71.60
80202;BME280;69521;54.454;9.928;2023-04-24T12:27:36;99854.63;;;11.41;68.00
80202;BME280;69521;54.454;9.928;2023-04-24T12:30:04;99850.38;;;11.23;70.10
80202;BME280;69521;54.454;9.928;2023-04-24T12:32:30;99854.78;;;11.48;68.91
80202;BME280;69521;54.454;9.928;2023-04-24T12:34:56;99851.38;;;11.70;69.24
80202;BME280;69521;54.454;9.928;2023-04-24T12:37:25;99854.09;;;11.54;69.70
80202;BME280;69521;54.454;9.928;2023-04-24T12:40:05;99858.31;;;11.32;69.74
80202;BME280;69521;54.454;9.928;2023-04-24T12:42:32;99862.19;;;11.46;69.28
80202;BME280;69521;54.454;9.928;2023-04-24T12:44:59;99853.41;;;11.85;68.57
80202;BME280;69521;54.454;9.928;2023-04-24T12:47:25;99849.69;;;11.86;66.62
80202;BME280;69521;54.454;9.928;2023-04-24T12:49:50;99856.44;;;11.82;68.66
80202;BME280;69521;54.454;9.928;2023-04-24T12:52:20;99847.63;;;11.96;70.46
80202;BME280;69521;54.454;9.928;2023-04-24T12:54:46;99856.78;;;11.78;69.25
80202;BME280;69521;54.454;9.928;2023-04-24T12:57:11;99855.09;;;11.77;66.65
80202;BME280;69521;54.454;9.928;2023-04-24T12:59:37;99862.16;;;11.62;68.21
80202;BME280;69521;54.454;9.928;2023-04-24T13:02:04;99856.41;;;11.73;68.18
80202;BME280;69521;54.454;9.928;2023-04-24T13:04:29;99849.38;;;11.64;68.82
80202;BME280;69521;54.454;9.928;2023-04-24T13:06:55;99850.06;;;11.26;68.42
80202;BME280;69521;54.454;9.928;2023-04-24T13:09:20;99853.91;;;11.15;68.43
80202;BME280;69521;54.454;9.928;2023-04-24T13:11:45;99868.56;;;11.04;68.13